createdAt,value
2023-04-15T00:00:03.574Z,86.09
2023-04-15T00:01:03.614Z,85.68
2023-04-15T00:02:03.652Z,84.64
2023-04-15T00:03:03.618Z,85.05
2023-04-15T00:04:03.727Z,85.16
2023-04-15T00:05:03.578Z,84.95
2023-04-15T00:06:03.516Z,85.36
2023-04-15T00:07:03.433Z,84.64
2023-04-15T00:08:03.540Z,84.53
2023-04-15T00:09:03.730Z,84.74
2023-04-15T00:10:03.502Z,85.36
2023-04-15T00:11:03.500Z,85.16
2023-04-15T00:12:03.514Z,84.84
2023-04-15T00:13:03.518Z,84.43
2023-04-15T00:14:03.529Z,84.12
2023-04-15T00:15:03.584Z,84.95
2023-04-15T00:16:03.448Z,84.74
2023-04-15T00:17:03.550Z,84.43
2023-04-15T00:18:03.474Z,84.64
2023-04-15T00:19:03.543Z,84.84
2023-04-15T00:20:03.500Z,86.09
2023-04-15T00:21:03.372Z,85.92
2023-04-15T00:22:03.321Z,85.36
2023-04-15T00:23:03.341Z,85.47
2023-04-15T00:24:03.174Z,86.29
2023-04-15T00:25:03.327Z,86.19
2023-04-15T00:26:03.432Z,85.78
2023-04-15T00:27:03.299Z,85.68
2023-04-15T00:28:03.277Z,86.09
2023-04-15T00:29:03.266Z,86.29
2023-04-15T00:30:03.254Z,85.88
2023-04-15T00:31:03.468Z,85.57
2023-04-15T00:32:03.276Z,85.88
2023-04-15T00:33:03.195Z,85.47
2023-04-15T00:34:03.183Z,86.09
2023-04-15T00:35:03.221Z,85.68
2023-04-15T00:36:03.180Z,85.88
2023-04-15T00:37:03.224Z,86.40
2023-04-15T00:38:03.160Z,86.40
2023-04-15T00:39:03.138Z,86.91
2023-04-15T00:40:03.123Z,87.12
2023-04-15T00:41:03.134Z,86.81
2023-04-15T00:42:03.158Z,86.40
2023-04-15T00:43:03.227Z,85.78
2023-04-15T00:44:03.073Z,86.09
2023-04-15T00:45:03.077Z,86.09
2023-04-15T00:46:03.081Z,85.99
2023-04-15T00:47:03.128Z,85.78
2023-04-15T00:48:03.158Z,86.60
2023-04-15T00:49:03.038Z,87.23
2023-04-15T00:50:03.068Z,87.12
2023-04-15T00:51:03.095Z,86.29
2023-04-15T00:52:03.070Z,86.09
2023-04-15T00:53:03.064Z,86.40
2023-04-15T00:54:02.977Z,87.64
2023-04-15T00:55:02.970Z,88.26
2023-04-15T00:56:02.963Z,87.64
2023-04-15T00:57:02.977Z,87.12
2023-04-15T00:58:03.066Z,87.12
2023-04-15T00:59:02.967Z,86.81
2023-04-15T01:00:02.981Z,86.71
2023-04-15T01:01:02.936Z,86.19
2023-04-15T01:02:03.036Z,85.16
2023-04-15T01:03:03.060Z,85.78
2023-04-15T01:04:03.006Z,87.02
2023-04-15T01:05:02.859Z,87.33
2023-04-15T01:06:03.985Z,87.02
2023-04-15T01:07:02.831Z,86.71
2023-04-15T01:08:02.933Z,87.02
2023-04-15T01:09:03.297Z,86.71
2023-04-15T01:10:02.863Z,86.09
2023-04-15T01:11:02.863Z,85.57
2023-04-15T01:12:02.845Z,85.36
2023-04-15T01:13:02.901Z,86.40
2023-04-15T01:14:02.813Z,86.29
2023-04-15T01:15:02.738Z,86.19
2023-04-15T01:16:02.800Z,86.09
2023-04-15T01:17:02.867Z,85.99
2023-04-15T01:18:02.749Z,86.09
2023-04-15T01:19:03.161Z,86.09
2023-04-15T01:20:02.748Z,85.88
2023-04-15T01:21:02.682Z,85.47
2023-04-15T01:22:02.687Z,85.88
2023-04-15T01:23:02.691Z,86.09
2023-04-15T01:24:02.671Z,86.09
2023-04-15T01:25:02.761Z,87.12
2023-04-15T01:26:02.675Z,87.64
2023-04-15T01:27:02.666Z,87.85
2023-04-15T01:28:02.656Z,87.74
2023-04-15T01:29:02.869Z,87.23
2023-04-15T01:30:02.662Z,87.12
2023-04-15T01:31:02.711Z,87.43
2023-04-15T01:32:02.657Z,87.54
2023-04-15T01:33:02.508Z,87.33
2023-04-15T01:34:02.663Z,87.54
2023-04-15T01:35:02.670Z,87.33
2023-04-15T01:36:02.585Z,87.33
2023-04-15T01:37:02.609Z,87.02
2023-04-15T01:38:02.615Z,87.95
2023-04-15T01:39:02.803Z,88.46
2023-04-15T01:40:02.491Z,88.98
2023-04-15T01:41:02.624Z,88.98
2023-04-15T01:42:02.508Z,89.09
2023-04-15T01:43:02.496Z,88.78
2023-04-15T01:44:02.486Z,88.46
2023-04-15T01:45:02.583Z,88.36
2023-04-15T01:46:02.573Z,88.46
2023-04-15T01:47:02.489Z,88.06
2023-04-15T01:48:02.661Z,87.54
2023-04-15T01:49:02.717Z,87.85
2023-04-15T01:50:02.386Z,87.95
2023-04-15T01:51:02.460Z,87.64
2023-04-15T01:52:02.401Z,88.36
2023-04-15T01:53:02.466Z,87.95
2023-04-15T01:54:02.494Z,87.74
2023-04-15T01:55:02.420Z,87.64
2023-04-15T01:56:02.412Z,87.64
2023-04-15T01:57:02.388Z,87.43
2023-04-15T01:58:02.302Z,87.85
2023-04-15T01:59:02.597Z,88.98
2023-04-15T02:00:02.308Z,89.40
2023-04-15T02:01:02.364Z,89.09
2023-04-15T02:02:02.422Z,88.78
2023-04-15T02:03:02.431Z,88.57
2023-04-15T02:04:02.344Z,88.16
2023-04-15T02:05:02.234Z,88.06
2023-04-15T02:06:02.156Z,87.85
2023-04-15T02:07:02.324Z,87.54
2023-04-15T02:08:02.242Z,87.12
2023-04-15T02:09:02.456Z,87.12
2023-04-15T02:10:02.175Z,87.23
2023-04-15T02:11:02.168Z,87.23
2023-04-15T02:12:02.270Z,87.33
2023-04-15T02:13:02.194Z,87.12
2023-04-15T02:14:02.285Z,88.06
2023-04-15T02:15:02.142Z,88.36
2023-04-15T02:16:02.156Z,87.95
2023-04-15T02:17:02.175Z,88.46
2023-04-15T02:18:02.136Z,88.26
2023-04-15T02:19:02.324Z,87.74
2023-04-15T02:20:02.121Z,87.54
2023-04-15T02:21:02.048Z,87.54
2023-04-15T02:22:02.057Z,88.16
2023-04-15T02:23:02.082Z,88.16
2023-04-15T02:24:02.134Z,88.06
2023-04-15T02:25:02.096Z,87.74
2023-04-15T02:26:02.049Z,87.54
2023-04-15T02:27:02.039Z,87.12
2023-04-15T02:28:02.048Z,86.91
2023-04-15T02:29:02.151Z,87.85
2023-04-15T02:30:01.991Z,88.57
2023-04-15T02:31:01.954Z,89.29
2023-04-15T02:32:02.052Z,89.19
2023-04-15T02:33:02.263Z,88.88
2023-04-15T02:34:02.018Z,88.67
2023-04-15T02:35:02.044Z,88.51
2023-04-15T02:36:01.985Z,88.09
2023-04-15T02:37:01.993Z,87.68
2023-04-15T02:38:01.940Z,87.57
2023-04-15T02:39:02.102Z,88.51
2023-04-15T02:40:01.825Z,89.13
2023-04-15T02:41:01.959Z,89.54
2023-04-15T02:42:01.868Z,89.54
2023-04-15T02:43:01.940Z,89.13
2023-04-15T02:44:01.869Z,88.82
2023-04-15T02:45:01.859Z,88.92
2023-04-15T02:46:01.972Z,88.92
2023-04-15T02:47:01.878Z,88.40
2023-04-15T02:48:01.872Z,87.99
2023-04-15T02:49:01.949Z,88.20
2023-04-15T02:50:01.758Z,88.61
2023-04-15T02:51:01.874Z,88.40
2023-04-15T02:52:01.843Z,87.37
2023-04-15T02:53:01.871Z,87.06
2023-04-15T02:54:01.715Z,86.85
2023-04-15T02:55:01.709Z,87.88
2023-04-15T02:56:01.736Z,87.57
2023-04-15T02:57:01.538Z,87.27
2023-04-15T02:58:01.736Z,87.37
2023-04-15T02:59:01.943Z,87.68
2023-04-15T03:00:01.711Z,87.16
2023-04-15T03:01:01.656Z,86.85
2023-04-15T03:02:01.795Z,87.06
2023-04-15T03:03:01.860Z,87.88
2023-04-15T03:04:01.712Z,87.99
2023-04-15T03:05:01.612Z,87.54
2023-04-15T03:06:01.638Z,87.74
2023-04-15T03:07:01.655Z,87.54
2023-04-15T03:08:01.632Z,88.98
2023-04-15T03:09:01.877Z,89.65
2023-04-15T03:10:01.554Z,88.98
2023-04-15T03:11:01.603Z,89.81
2023-04-15T03:12:01.672Z,89.40
2023-04-15T03:13:01.617Z,89.86
2023-04-15T03:14:01.508Z,89.81
2023-04-15T03:15:01.551Z,89.44
2023-04-15T03:16:01.560Z,90.02
2023-04-15T03:17:01.450Z,89.96
2023-04-15T03:18:01.495Z,89.75
2023-04-15T03:19:01.721Z,89.44
2023-04-15T03:20:01.453Z,89.23
2023-04-15T03:21:01.463Z,89.75
2023-04-15T03:22:01.435Z,89.65
2023-04-15T03:23:01.449Z,89.65
2023-04-15T03:24:01.521Z,89.34
2023-04-15T03:25:01.389Z,89.86
2023-04-15T03:26:01.410Z,89.75
2023-04-15T03:27:01.407Z,89.54
2023-04-15T03:28:01.421Z,89.86
2023-04-15T03:29:01.691Z,89.96
2023-04-15T03:30:01.467Z,89.96
2023-04-15T03:31:01.415Z,89.86
2023-04-15T03:32:01.333Z,89.54
2023-04-15T03:33:01.378Z,89.75
2023-04-15T03:34:01.400Z,89.03
2023-04-15T03:35:01.401Z,89.34
2023-04-15T03:36:01.311Z,89.34
2023-04-15T03:37:01.316Z,89.34
2023-04-15T03:38:01.246Z,88.92
2023-04-15T03:39:01.555Z,89.13
2023-04-15T03:40:01.301Z,89.54
2023-04-15T03:41:01.269Z,90.89
2023-04-15T03:42:01.259Z,90.78
2023-04-15T03:43:01.326Z,90.47
2023-04-15T03:44:01.231Z,90.52
2023-04-15T03:45:01.228Z,90.52
2023-04-15T03:46:02.039Z,89.75
2023-04-15T03:47:01.122Z,89.28
2023-04-15T03:48:15.532Z,89.48
2023-04-15T03:49:01.268Z,89.79
2023-04-15T03:50:01.063Z,90.06
2023-04-15T03:51:01.209Z,90.06
2023-04-15T03:52:01.125Z,89.96
2023-04-15T03:53:01.137Z,90.37
2023-04-15T03:54:01.134Z,90.06
2023-04-15T03:55:01.201Z,89.86
2023-04-15T03:56:01.128Z,90.62
2023-04-15T03:57:01.053Z,90.16
2023-04-15T03:58:01.046Z,90.58
2023-04-15T03:59:01.197Z,90.47
2023-04-15T04:00:01.122Z,90.78
2023-04-15T04:01:01.022Z,90.78
2023-04-15T04:02:01.037Z,90.78
2023-04-15T04:03:01.236Z,90.47
2023-04-15T04:04:01.084Z,90.68
2023-04-15T04:05:01.004Z,90.99
2023-04-15T04:06:00.779Z,90.58
2023-04-15T04:07:00.935Z,90.58
2023-04-15T04:08:00.945Z,90.37
2023-04-15T04:09:01.048Z,90.06
2023-04-15T04:10:00.722Z,90.26
2023-04-15T04:11:00.918Z,90.47
2023-04-15T04:12:00.858Z,90.78
2023-04-15T04:13:00.843Z,90.99
2023-04-15T04:14:00.925Z,90.78
2023-04-15T04:15:00.832Z,90.68
2023-04-15T04:16:00.917Z,90.89
2023-04-15T04:17:00.846Z,91.09
2023-04-15T04:18:00.825Z,90.89
2023-04-15T04:19:01.034Z,91.09
2023-04-15T04:20:00.711Z,90.99
2023-04-15T04:21:00.799Z,90.99
2023-04-15T04:22:00.723Z,90.99
2023-04-15T04:23:00.783Z,91.09
2023-04-15T04:24:00.715Z,91.30
2023-04-15T04:25:00.790Z,91.05
2023-04-15T04:26:00.699Z,90.68
2023-04-15T04:27:00.687Z,90.64
2023-04-15T04:28:00.686Z,90.84
2023-04-15T04:29:01.054Z,90.74
2023-04-15T04:30:00.683Z,91.05
2023-04-15T04:31:00.679Z,91.88
2023-04-15T04:32:00.670Z,91.99
2023-04-15T04:33:00.729Z,91.47
2023-04-15T04:34:00.689Z,91.05
2023-04-15T04:35:00.606Z,91.16
2023-04-15T04:36:00.618Z,91.05
2023-04-15T04:37:00.612Z,90.84
2023-04-15T04:38:00.611Z,90.95
2023-04-15T04:39:00.897Z,91.16
2023-04-15T04:40:00.561Z,91.67
2023-04-15T04:41:00.546Z,91.57
2023-04-15T04:42:00.531Z,91.36
2023-04-15T04:43:00.509Z,91.88
2023-04-15T04:44:00.491Z,91.88
2023-04-15T04:45:00.564Z,92.15
2023-04-15T04:46:00.527Z,92.15
2023-04-15T04:47:00.527Z,92.87
2023-04-15T04:48:00.528Z,92.77
2023-04-15T04:49:00.660Z,92.25
2023-04-15T04:50:00.599Z,91.74
2023-04-15T04:51:00.444Z,91.63
2023-04-15T04:52:00.431Z,91.63
2023-04-15T04:53:00.407Z,91.63
2023-04-15T04:54:01.856Z,91.84
2023-04-15T04:55:00.519Z,91.69
2023-04-15T04:56:00.361Z,91.80
2023-04-15T04:57:00.373Z,91.80
2023-04-15T04:58:00.353Z,92.11
2023-04-15T04:59:00.588Z,92.63
2023-04-15T05:00:00.322Z,92.93
2023-04-15T05:01:00.357Z,92.52
2023-04-15T05:02:00.386Z,92.63
2023-04-15T05:03:00.627Z,92.79
2023-04-15T05:04:00.494Z,92.93
2023-04-15T05:05:00.303Z,92.68
2023-04-15T05:06:00.256Z,92.27
2023-04-15T05:07:00.369Z,92.48
2023-04-15T05:08:00.320Z,92.38
2023-04-15T05:09:00.398Z,92.27
2023-04-15T05:10:00.303Z,92.38
2023-04-15T05:11:00.323Z,92.44
2023-04-15T05:12:00.339Z,92.02
2023-04-15T05:13:00.356Z,91.92
2023-04-15T05:14:00.190Z,91.20
2023-04-15T05:15:00.203Z,90.99
2023-04-15T05:16:00.271Z,91.82
2023-04-15T05:17:00.203Z,92.13
2023-04-15T05:18:00.334Z,92.02
2023-04-15T05:19:00.379Z,91.50
2023-04-15T05:20:00.156Z,91.71
2023-04-15T05:21:00.152Z,91.92
2023-04-15T05:22:00.171Z,91.77
2023-04-15T05:23:00.166Z,91.40
2023-04-15T05:24:00.111Z,91.67
2023-04-15T05:25:00.085Z,91.67
2023-04-15T05:26:00.099Z,91.67
2023-04-15T05:27:00.097Z,91.46
2023-04-15T05:28:00.095Z,90.95
2023-04-15T05:29:00.420Z,91.26
2023-04-15T05:30:00.068Z,91.26
2023-04-15T05:31:00.082Z,90.84
2023-04-15T05:31:59.868Z,90.64
2023-04-15T05:32:59.960Z,90.43
2023-04-15T05:34:00.002Z,90.53
2023-04-15T05:34:59.846Z,90.43
2023-04-15T05:35:59.855Z,90.70
2023-04-15T05:36:59.819Z,90.91
2023-04-15T05:37:59.968Z,90.70
2023-04-15T05:39:00.173Z,90.91
2023-04-15T05:39:59.973Z,90.80
2023-04-15T05:40:59.954Z,90.49
2023-04-15T05:41:59.797Z,90.39
2023-04-15T05:42:59.939Z,90.91
2023-04-15T05:43:59.976Z,90.80
2023-04-15T05:44:59.924Z,90.80
2023-04-15T05:45:59.980Z,90.80
2023-04-15T05:46:59.871Z,90.39
2023-04-15T05:47:59.872Z,90.55
2023-04-15T05:49:00.155Z,90.80
2023-04-15T05:49:59.910Z,90.66
2023-04-15T05:50:59.919Z,90.45
2023-04-15T05:51:59.922Z,89.83
2023-04-15T05:52:59.846Z,89.83
2023-04-15T05:53:59.766Z,89.83
2023-04-15T05:54:59.794Z,90.04
2023-04-15T05:55:59.747Z,89.94
2023-04-15T05:56:59.847Z,90.25
2023-04-15T05:57:59.783Z,89.94
2023-04-15T05:58:59.961Z,89.73
2023-04-15T05:59:59.748Z,89.83
2023-04-15T06:00:59.678Z,90.04
2023-04-15T06:01:59.594Z,89.94
2023-04-15T06:02:59.621Z,89.83
2023-04-15T06:03:59.786Z,89.94
2023-04-15T06:04:59.589Z,89.94
2023-04-15T06:05:59.533Z,89.73
2023-04-15T06:06:59.519Z,89.94
2023-04-15T06:07:59.552Z,89.94
2023-04-15T06:08:59.536Z,89.83
2023-04-15T06:09:59.571Z,89.73
2023-04-15T06:10:59.475Z,90.04
2023-04-15T06:11:59.454Z,90.04
2023-04-15T06:12:59.627Z,89.58
2023-04-15T06:13:59.441Z,89.94
2023-04-15T06:15:00.215Z,89.73
2023-04-15T06:15:59.541Z,89.94
2023-04-15T06:16:59.525Z,90.20
2023-04-15T06:17:59.443Z,89.69
2023-04-15T06:18:59.502Z,90.31
2023-04-15T06:19:59.402Z,90.92
2023-04-15T06:20:59.383Z,90.82
2023-04-15T06:21:59.369Z,90.72
2023-04-15T06:22:59.361Z,90.82
2023-04-15T06:23:59.421Z,90.82
2023-04-15T06:24:59.376Z,90.72
2023-04-15T06:25:59.346Z,91.03
2023-04-15T06:26:59.324Z,91.24
2023-04-15T06:27:59.307Z,91.13
2023-04-15T06:28:59.476Z,90.92
2023-04-15T06:29:59.543Z,90.82
2023-04-15T06:30:59.323Z,90.92
2023-04-15T06:31:59.400Z,91.03
2023-04-15T06:32:59.448Z,91.24
2023-04-15T06:33:59.427Z,91.34
2023-04-15T06:34:59.275Z,91.24
2023-04-15T06:35:59.279Z,91.24
2023-04-15T06:36:59.353Z,91.13
2023-04-15T06:37:59.260Z,91.24
2023-04-15T06:38:59.504Z,91.03
2023-04-15T06:39:59.355Z,91.03
2023-04-15T06:40:59.276Z,91.64
2023-04-15T06:41:59.278Z,91.96
2023-04-15T06:42:59.284Z,91.96
2023-04-15T06:43:59.360Z,91.85
2023-04-15T06:44:59.314Z,91.75
2023-04-15T06:45:59.195Z,92.27
2023-04-15T06:46:59.233Z,92.06
2023-04-15T06:47:59.270Z,91.75
2023-04-15T06:48:59.353Z,92.16
2023-04-15T06:49:59.118Z,92.37
2023-04-15T06:50:59.136Z,92.16
2023-04-15T06:51:59.136Z,92.27
2023-04-15T06:52:59.093Z,92.47
2023-04-15T06:53:58.995Z,92.06
2023-04-15T06:54:59.290Z,92.37
2023-04-15T06:55:59.253Z,92.37
2023-04-15T06:56:59.012Z,92.16
2023-04-15T06:57:59.032Z,92.27
2023-04-15T06:58:59.105Z,92.68
2023-04-15T06:59:58.997Z,92.53
2023-04-15T07:00:59.039Z,92.43
2023-04-15T07:01:59.061Z,92.63
2023-04-15T07:02:58.924Z,92.43
2023-04-15T07:03:58.951Z,92.63
2023-04-15T07:04:58.925Z,92.88
2023-04-15T07:05:58.893Z,92.94
2023-04-15T07:06:58.899Z,92.94
2023-04-15T07:07:58.994Z,92.53
2023-04-15T07:08:58.823Z,92.43
2023-04-15T07:09:58.843Z,92.84
2023-04-15T07:10:58.966Z,93.05
2023-04-15T07:11:58.917Z,92.94
2023-04-15T07:12:58.936Z,92.84
2023-04-15T07:13:58.920Z,92.53
2023-04-15T07:14:58.790Z,93.05
2023-04-15T07:15:58.790Z,93.46
2023-04-15T07:16:58.845Z,93.15
2023-04-15T07:17:58.951Z,93.05
2023-04-15T07:18:58.841Z,93.56
2023-04-15T07:19:58.866Z,93.50
2023-04-15T07:20:58.859Z,93.56
2023-04-15T07:21:58.766Z,93.66
2023-04-15T07:22:58.726Z,93.77
2023-04-15T07:23:58.684Z,93.71
2023-04-15T07:24:58.822Z,93.71
2023-04-15T07:25:58.672Z,93.81
2023-04-15T07:27:00.322Z,93.91
2023-04-15T07:27:58.798Z,94.02
2023-04-15T07:28:58.720Z,93.71
2023-04-15T07:29:58.689Z,93.91
2023-04-15T07:30:58.657Z,93.91
2023-04-15T07:31:58.657Z,93.91
2023-04-15T07:32:58.672Z,94.02
2023-04-15T07:33:58.677Z,94.23
2023-04-15T07:34:58.659Z,93.91
2023-04-15T07:35:58.556Z,94.12
2023-04-15T07:36:58.605Z,94.02
2023-04-15T07:37:58.840Z,94.18
2023-04-15T07:38:58.926Z,94.23
2023-04-15T07:39:58.549Z,93.77
2023-04-15T07:40:58.523Z,93.35
2023-04-15T07:41:58.661Z,93.30
2023-04-15T07:42:58.711Z,93.40
2023-04-15T07:43:58.679Z,93.60
2023-04-15T07:44:58.656Z,93.81
2023-04-15T07:45:58.733Z,94.12
2023-04-15T07:46:58.687Z,94.23
2023-04-15T07:47:58.647Z,94.23
2023-04-15T07:48:58.642Z,94.43
2023-04-15T07:49:58.725Z,94.70
2023-04-15T07:50:58.411Z,94.74
2023-04-15T07:51:58.414Z,94.70
2023-04-15T07:52:58.416Z,94.38
2023-04-15T07:53:58.618Z,94.38
2023-04-15T07:54:58.674Z,94.38
2023-04-15T07:55:58.424Z,94.18
2023-04-15T07:56:58.468Z,93.87
2023-04-15T07:57:58.511Z,93.98
2023-04-15T07:58:58.611Z,94.18
2023-04-15T07:59:58.617Z,94.18
2023-04-15T08:00:58.400Z,93.87
2023-04-15T08:01:58.515Z,93.66
2023-04-15T08:02:58.635Z,93.98
2023-04-15T08:03:58.594Z,94.18
2023-04-15T08:04:58.497Z,93.98
2023-04-15T08:05:58.454Z,94.28
2023-04-15T08:06:58.409Z,94.28
2023-04-15T08:07:58.428Z,93.87
2023-04-15T08:08:58.420Z,93.98
2023-04-15T08:09:58.406Z,93.93
2023-04-15T08:10:58.293Z,94.28
2023-04-15T08:11:58.394Z,94.03
2023-04-15T08:12:58.387Z,93.52
2023-04-15T08:13:58.374Z,93.62
2023-04-15T08:14:58.162Z,93.41
2023-04-15T08:15:58.243Z,93.25
2023-04-15T08:16:58.312Z,93.52
2023-04-15T08:17:58.336Z,93.93
2023-04-15T08:18:58.293Z,94.13
2023-04-15T08:19:58.246Z,94.03
2023-04-15T08:20:58.311Z,93.73
2023-04-15T08:21:58.225Z,93.52
2023-04-15T08:22:58.216Z,93.83
2023-04-15T08:23:58.200Z,94.34
2023-04-15T08:24:58.202Z,94.45
2023-04-15T08:25:58.185Z,94.13
2023-04-15T08:26:58.072Z,94.34
2023-04-15T08:27:58.037Z,94.45
2023-04-15T08:28:58.200Z,94.34
2023-04-15T08:29:58.045Z,94.65
2023-04-15T08:30:57.996Z,94.55
2023-04-15T08:31:58.077Z,94.45
2023-04-15T08:32:58.180Z,94.65
2023-04-15T08:33:58.598Z,94.20
2023-04-15T08:34:58.127Z,94.40
2023-04-15T08:35:58.091Z,94.30
2023-04-15T08:36:58.187Z,93.58
2023-04-15T08:37:58.058Z,93.88
2023-04-15T08:38:58.091Z,94.30
2023-04-15T08:39:58.060Z,93.88
2023-04-15T08:40:57.955Z,93.88
2023-04-15T08:41:58.004Z,93.79
2023-04-15T08:42:58.138Z,93.68
2023-04-15T08:43:57.960Z,93.79
2023-04-15T08:44:58.016Z,93.79
2023-04-15T08:45:57.990Z,93.48
2023-04-15T08:46:58.017Z,93.68
2023-04-15T08:47:58.080Z,93.88
2023-04-15T08:48:57.998Z,94.09
2023-04-15T08:49:58.023Z,93.68
2023-04-15T08:50:57.932Z,93.58
2023-04-15T08:51:57.912Z,93.37
2023-04-15T08:52:57.884Z,93.37
2023-04-15T08:53:57.931Z,93.37
2023-04-15T08:54:57.908Z,93.37
2023-04-15T08:55:58.124Z,93.48
2023-04-15T08:56:57.922Z,93.48
2023-04-15T08:57:57.866Z,93.58
2023-04-15T08:58:57.946Z,93.37
2023-04-15T08:59:57.850Z,93.06
2023-04-15T09:00:58.006Z,93.48
2023-04-15T09:01:57.893Z,93.88
2023-04-15T09:02:57.857Z,94.30
2023-04-15T09:03:57.910Z,94.20
2023-04-15T09:04:57.900Z,94.24
2023-04-15T09:05:57.755Z,94.34
2023-04-15T09:06:57.607Z,94.34
2023-04-15T09:07:57.771Z,94.76
2023-04-15T09:08:57.726Z,94.81
2023-04-15T09:09:57.783Z,95.06
2023-04-15T09:10:57.606Z,95.27
2023-04-15T09:11:57.580Z,95.58
2023-04-15T09:12:57.714Z,95.23
2023-04-15T09:13:57.777Z,95.12
2023-04-15T09:14:57.751Z,94.92
2023-04-15T09:15:57.766Z,95.12
2023-04-15T09:16:57.772Z,95.12
2023-04-15T09:17:57.766Z,95.02
2023-04-15T09:18:57.680Z,94.81
2023-04-15T09:19:57.695Z,94.40
2023-04-15T09:20:57.617Z,94.60
2023-04-15T09:21:59.075Z,94.51
2023-04-15T09:22:57.627Z,94.60
2023-04-15T09:23:57.624Z,94.67
2023-04-15T09:24:57.620Z,94.81
2023-04-15T09:25:57.691Z,94.56
2023-04-15T09:26:57.599Z,94.77
2023-04-15T09:27:57.646Z,94.77
2023-04-15T09:28:57.559Z,94.46
2023-04-15T09:29:57.369Z,94.46
2023-04-15T09:30:57.593Z,94.36
2023-04-15T09:31:57.479Z,94.46
2023-04-15T09:32:57.609Z,94.98
2023-04-15T09:33:57.478Z,95.18
2023-04-15T09:34:57.554Z,95.28
2023-04-15T09:35:57.297Z,95.18
2023-04-15T09:36:57.540Z,95.08
2023-04-15T09:37:57.460Z,95.39
2023-04-15T09:38:57.467Z,95.49
2023-04-15T09:39:57.462Z,95.39
2023-04-15T09:40:57.532Z,95.18
2023-04-15T09:41:57.428Z,95.08
2023-04-15T09:42:57.456Z,95.18
2023-04-15T09:43:57.269Z,95.39
2023-04-15T09:44:57.239Z,95.64
2023-04-15T09:45:57.341Z,95.80
2023-04-15T09:46:57.208Z,95.49
2023-04-15T09:47:58.838Z,95.64
2023-04-15T09:48:57.190Z,95.74
2023-04-15T09:49:57.259Z,95.53
2023-04-15T09:50:57.302Z,95.74
2023-04-15T09:52:05.098Z,95.74
2023-04-15T09:52:57.262Z,95.95
2023-04-15T09:53:57.207Z,96.05
2023-04-15T09:54:57.154Z,96.15
2023-04-15T09:55:57.231Z,96.11
2023-04-15T09:56:57.081Z,96.21
2023-04-15T09:57:57.094Z,96.21
2023-04-15T09:58:57.178Z,95.80
2023-04-15T09:59:57.070Z,95.59
2023-04-15T10:00:57.278Z,95.80
2023-04-15T10:01:57.101Z,95.70
2023-04-15T10:02:57.148Z,95.59
2023-04-15T10:03:57.090Z,95.49
2023-04-15T10:04:57.070Z,95.49
2023-04-15T10:05:57.693Z,95.80
2023-04-15T10:06:57.080Z,95.80
2023-04-15T10:07:57.029Z,95.80
2023-04-15T10:08:57.012Z,95.70
2023-04-15T10:09:56.974Z,95.59
2023-04-15T10:10:56.994Z,95.70
2023-04-15T10:11:56.916Z,95.70
2023-04-15T10:12:56.950Z,96.00
2023-04-15T10:13:56.905Z,95.86
2023-04-15T10:14:56.973Z,95.96
2023-04-15T10:15:56.989Z,95.96
2023-04-15T10:16:56.945Z,95.75
2023-04-15T10:17:57.018Z,95.86
2023-04-15T10:18:56.903Z,95.86
2023-04-15T10:19:56.916Z,95.96
2023-04-15T10:20:56.956Z,96.17
2023-04-15T10:21:56.838Z,95.65
2023-04-15T10:22:56.830Z,95.75
2023-04-15T10:23:56.858Z,95.55
2023-04-15T10:24:56.862Z,95.55
2023-04-15T10:25:56.822Z,95.86
2023-04-15T10:26:56.791Z,95.75
2023-04-15T10:27:56.768Z,95.65
2023-04-15T10:28:58.361Z,95.96
2023-04-15T10:29:57.074Z,96.17
2023-04-15T10:30:57.130Z,96.06
2023-04-15T10:31:56.994Z,96.27
2023-04-15T10:32:57.013Z,95.96
2023-04-15T10:33:56.962Z,95.96
2023-04-15T10:34:56.706Z,96.27
2023-04-15T10:35:57.055Z,96.27
2023-04-15T10:36:56.944Z,96.27
2023-04-15T10:37:56.670Z,96.17
2023-04-15T10:38:56.872Z,96.17
2023-04-15T10:39:56.834Z,96.17
2023-04-15T10:40:56.792Z,96.37
2023-04-15T10:41:56.884Z,96.37
2023-04-15T10:42:56.747Z,96.47
2023-04-15T10:43:56.598Z,96.58
2023-04-15T10:44:56.681Z,96.68
2023-04-15T10:45:56.592Z,96.58
2023-04-15T10:46:56.820Z,96.47
2023-04-15T10:47:56.633Z,96.47
2023-04-15T10:48:56.573Z,96.58
2023-04-15T10:49:56.540Z,96.17
2023-04-15T10:50:56.557Z,96.27
2023-04-15T10:51:56.964Z,96.58
2023-04-15T10:52:56.678Z,96.58
2023-04-15T10:53:56.519Z,96.68
2023-04-15T10:54:56.498Z,96.58
2023-04-15T10:55:56.489Z,96.68
2023-04-15T10:56:56.514Z,96.58
2023-04-15T10:57:56.642Z,96.47
2023-04-15T10:58:56.637Z,96.58
2023-04-15T10:59:56.615Z,96.58
2023-04-15T11:00:56.593Z,96.37
2023-04-15T11:01:57.042Z,96.68
2023-04-15T11:02:56.851Z,96.58
2023-04-15T11:03:56.627Z,96.68
2023-04-15T11:04:56.606Z,96.58
2023-04-15T11:05:56.427Z,96.58
2023-04-15T11:06:56.353Z,96.47
2023-04-15T11:07:56.490Z,96.37
2023-04-15T11:08:56.644Z,96.58
2023-04-15T11:09:56.451Z,96.53
2023-04-15T11:10:56.545Z,96.64
2023-04-15T11:11:56.531Z,96.53
2023-04-15T11:12:56.432Z,96.43
2023-04-15T11:13:56.330Z,96.43
2023-04-15T11:14:56.477Z,96.53
2023-04-15T11:15:56.572Z,96.53
2023-04-15T11:16:56.391Z,96.53
2023-04-15T11:17:56.306Z,96.53
2023-04-15T11:18:56.245Z,96.73
2023-04-15T11:19:56.229Z,96.73
2023-04-15T11:20:56.268Z,96.64
2023-04-15T11:21:56.272Z,96.73
2023-04-15T11:23:12.977Z,96.84
2023-04-15T11:23:56.400Z,96.94
2023-04-15T11:24:56.246Z,97.15
2023-04-15T11:25:56.195Z,97.25
2023-04-15T11:26:56.336Z,97.25
2023-04-15T11:27:56.337Z,97.15
2023-04-15T11:28:56.157Z,97.15
2023-04-15T11:29:56.119Z,97.15
2023-04-15T11:30:56.172Z,97.25
2023-04-15T11:31:56.152Z,97.30
2023-04-15T11:32:56.198Z,97.36
2023-04-15T11:33:56.088Z,97.36
2023-04-15T11:34:56.069Z,97.45
2023-04-15T11:35:56.070Z,97.45
2023-04-15T11:36:56.297Z,97.25
2023-04-15T11:37:56.021Z,97.25
2023-04-15T11:38:56.158Z,97.15
2023-04-15T11:39:56.056Z,97.25
2023-04-15T11:40:56.048Z,97.36
2023-04-15T11:41:56.063Z,97.45
2023-04-15T11:42:56.081Z,97.36
2023-04-15T11:43:56.012Z,97.36
2023-04-15T11:44:56.045Z,97.36
2023-04-15T11:45:56.014Z,97.56
2023-04-15T11:46:56.004Z,97.45
2023-04-15T11:47:56.675Z,97.36
2023-04-15T11:48:55.929Z,97.45
2023-04-15T11:49:55.993Z,97.56
2023-04-15T11:50:55.940Z,97.45
2023-04-15T11:51:55.931Z,97.36
2023-04-15T11:52:55.910Z,97.15
2023-04-15T11:53:55.944Z,97.15
2023-04-15T11:54:55.954Z,97.05
2023-04-15T11:55:55.861Z,97.05
2023-04-15T11:56:55.905Z,97.00
2023-04-15T11:57:55.817Z,96.90
2023-04-15T11:58:55.974Z,96.80
2023-04-15T11:59:55.818Z,96.59
2023-04-15T12:00:55.805Z,96.73
2023-04-15T12:01:55.871Z,97.05
2023-04-15T12:02:55.947Z,97.25
2023-04-15T12:03:56.057Z,97.36
2023-04-15T12:04:55.942Z,97.52
2023-04-15T12:05:55.781Z,97.52
2023-04-15T12:06:55.810Z,97.52
2023-04-15T12:07:55.733Z,97.52
2023-04-15T12:08:55.882Z,97.41
2023-04-15T12:09:55.766Z,97.41
2023-04-15T12:10:55.733Z,97.31
2023-04-15T12:11:55.855Z,97.20
2023-04-15T12:12:55.751Z,97.31
2023-04-15T12:13:55.661Z,97.31
2023-04-15T12:14:55.738Z,97.31
2023-04-15T12:15:55.820Z,97.31
2023-04-15T12:16:58.039Z,97.10
2023-04-15T12:17:55.732Z,97.00
2023-04-15T12:18:55.661Z,97.10
2023-04-15T12:19:55.606Z,97.00
2023-04-15T12:20:55.639Z,96.90
2023-04-15T12:21:56.146Z,96.90
2023-04-15T12:22:55.618Z,97.10
2023-04-15T12:23:55.666Z,96.90
2023-04-15T12:24:55.908Z,97.00
2023-04-15T12:25:55.781Z,97.10
2023-04-15T12:26:55.796Z,97.10
2023-04-15T12:27:55.799Z,97.20
2023-04-15T12:28:55.559Z,97.31
2023-04-15T12:29:55.514Z,97.20
2023-04-15T12:30:55.731Z,97.41
2023-04-15T12:31:55.580Z,97.52
2023-04-15T12:32:55.639Z,97.62
2023-04-15T12:33:55.508Z,97.52
2023-04-15T12:34:55.477Z,97.52
2023-04-15T12:35:55.444Z,97.31
2023-04-15T12:36:55.688Z,97.10
2023-04-15T12:37:55.505Z,97.10
2023-04-15T12:38:55.447Z,96.94
2023-04-15T12:39:55.430Z,97.15
2023-04-15T12:40:55.452Z,97.52
2023-04-15T12:41:55.377Z,97.52
2023-04-15T12:42:55.400Z,97.20
2023-04-15T12:43:55.350Z,97.41
2023-04-15T12:44:55.440Z,97.62
2023-04-15T12:45:55.504Z,97.52
2023-04-15T12:46:55.589Z,97.52
2023-04-15T12:47:55.398Z,97.52
2023-04-15T12:48:55.330Z,97.41
2023-04-15T12:49:55.391Z,97.41
2023-04-15T12:50:55.325Z,97.62
2023-04-15T12:51:55.323Z,97.41